Time;durP1;ratioP1;P1;durP2;ratioP2;P2;SDS_P1;SDS_P2;PMS_P1;PMS_P2;Temp;Humidity;BMP_temperature;BMP_pressure;BME280_temperature;BME280_humidity;BME280_pressure;Samples;Min_cycle;Max_cycle;Signal;HPM_P1;HPM_P2
2023/04/06 00:00:32;;;;;;;11.02;7.63;;;9.00;99.90;;;;;;5116076;28;20035;-90
2023/04/06 00:02:58;;;;;;;10.05;5.32;;;9.00;99.90;;;;;;5115633;28;20032;-90
2023/04/06 00:05:24;;;;;;;14.30;7.13;;;9.00;99.90;;;;;;5115574;28;20108;-90
2023/04/06 00:07:50;;;;;;;11.23;8.10;;;8.90;99.90;;;;;;5116362;28;20382;-90
2023/04/06 00:10:19;;;;;;;9.60;6.28;;;8.90;99.90;;;;;;5115147;28;20481;-91
2023/04/06 00:12:44;;;;;;;11.70;7.82;;;8.90;99.90;;;;;;5115456;28;20015;-90
2023/04/06 00:15:10;;;;;;;10.82;8.23;;;9.00;99.90;;;;;;5121231;28;20438;-90
2023/04/06 00:17:36;;;;;;;9.20;6.32;;;9.00;99.90;;;;;;5115467;28;20023;-90
2023/04/06 00:20:02;;;;;;;12.40;7.70;;;9.00;99.90;;;;;;5095568;28;20425;-90
2023/04/06 00:22:27;;;;;;;9.93;5.60;;;9.00;99.90;;;;;;5095988;28;20031;-91
2023/04/06 00:24:53;;;;;;;13.15;8.65;;;9.00;99.90;;;;;;5097829;28;20032;-90
2023/04/06 00:27:19;;;;;;;15.45;8.90;;;9.00;99.90;;;;;;5098145;28;20069;-90
2023/04/06 00:29:45;;;;;;;11.52;6.90;;;9.00;99.90;;;;;;5099719;28;20101;-90
2023/04/06 00:32:10;;;;;;;16.17;9.52;;;9.00;99.90;;;;;;5113961;28;20016;-89
2023/04/06 00:34:36;;;;;;;12.88;8.15;;;9.00;99.90;;;;;;5111475;28;20012;-90
2023/04/06 00:37:02;;;;;;;13.50;9.13;;;9.00;99.90;;;;;;5110559;28;20024;-90
2023/04/06 00:39:27;;;;;;;13.15;9.13;;;9.00;99.90;;;;;;5095973;28;20024;-90
2023/04/06 00:41:54;;;;;;;11.68;7.53;;;9.00;99.90;;;;;;5095274;28;20073;-90
2023/04/06 00:44:21;;;;;;;14.13;9.07;;;9.00;99.90;;;;;;5095592;28;20055;-92
2023/04/06 00:46:47;;;;;;;15.68;9.20;;;9.00;99.90;;;;;;5095094;28;20477;-90
2023/04/06 00:49:12;;;;;;;17.33;9.13;;;9.00;99.90;;;;;;5095062;28;20024;-90
2023/04/06 00:51:38;;;;;;;16.85;9.73;;;9.00;99.90;;;;;;5094623;28;20032;-89
2023/04/06 00:54:04;;;;;;;14.52;9.32;;;9.00;99.90;;;;;;5094742;28;20020;-89
2023/04/06 00:56:29;;;;;;;15.55;9.73;;;9.00;99.90;;;;;;5095537;28;20028;-90
2023/04/06 00:58:55;;;;;;;16.23;10.18;;;9.00;99.90;;;;;;5097015;28;20054;-90
2023/04/06 01:01:21;;;;;;;11.30;7.43;;;9.00;99.90;;;;;;5113759;28;20057;-89
2023/04/06 01:03:49;;;;;;;17.17;9.50;;;9.00;99.90;;;;;;5114073;28;20565;-90
2023/04/06 01:06:15;;;;;;;7.82;5.38;;;9.00;99.90;;;;;;5114513;28;20031;-90
2023/04/06 01:08:40;;;;;;;15.55;9.77;;;9.00;99.90;;;;;;5114111;28;20028;-90
2023/04/06 01:11:06;;;;;;;21.58;10.32;;;9.00;99.90;;;;;;5115109;28;20472;-89
2023/04/06 01:13:32;;;;;;;13.98;9.18;;;9.00;99.90;;;;;;5114504;28;20380;-91
2023/04/06 01:15:58;;;;;;;16.60;10.23;;;9.00;99.90;;;;;;5118704;28;20034;-91
2023/04/06 01:18:27;;;;;;;15.60;9.63;;;9.00;99.90;;;;;;5115011;28;20028;-91
2023/04/06 01:20:53;;;;;;;16.40;9.43;;;9.00;99.90;;;;;;5113804;28;20050;-91
2023/04/06 01:23:19;;;;;;;8.88;5.85;;;9.00;99.90;;;;;;5114305;28;20505;-90
2023/04/06 01:25:45;;;;;;;7.75;6.00;;;9.00;99.90;;;;;;5114488;28;20549;-91
2023/04/06 01:28:11;;;;;;;15.48;9.35;;;9.00;99.90;;;;;;5113235;28;20052;-90
2023/04/06 01:30:36;;;;;;;12.90;8.18;;;9.00;99.90;;;;;;5113376;28;20083;-90
2023/04/06 01:33:02;;;;;;;12.50;8.45;;;9.00;99.90;;;;;;5113253;28;20023;-90
2023/04/06 01:35:28;;;;;;;11.60;7.72;;;9.10;99.90;;;;;;5113031;28;20031;-91
2023/04/06 01:37:54;;;;;;;9.93;6.70;;;9.00;99.90;;;;;;5113863;28;20460;-91
2023/04/06 01:40:20;;;;;;;16.55;9.07;;;9.10;99.90;;;;;;5114368;28;20062;-91
2023/04/06 01:42:46;;;;;;;15.02;9.73;;;9.10;99.90;;;;;;5116210;28;20024;-90
2023/04/06 01:45:12;;;;;;;12.55;7.85;;;9.10;99.90;;;;;;5114750;28;20096;-90
2023/04/06 01:47:37;;;;;;;15.90;9.20;;;9.10;99.90;;;;;;5113671;28;20030;-93
2023/04/06 01:50:05;;;;;;;10.57;6.63;;;9.10;99.90;;;;;;5113792;28;20066;-89
2023/04/06 01:52:32;;;;;;;8.93;6.07;;;9.10;99.90;;;;;;5113990;28;20016;-91
2023/04/06 01:54:58;;;;;;;13.02;8.45;;;9.10;99.90;;;;;;5113520;28;20032;-91
2023/04/06 01:57:25;;;;;;;16.45;9.13;;;9.10;99.90;;;;;;5114048;28;20080;-90
2023/04/06 01:59:51;;;;;;;12.20;7.60;;;9.10;99.90;;;;;;5114496;28;20020;-90
2023/04/06 02:02:17;;;;;;;14.07;8.55;;;9.10;99.90;;;;;;5113764;28;20544;-92
2023/04/06 02:04:43;;;;;;;13.13;7.85;;;9.10;99.90;;;;;;5113566;28;20052;-91
2023/04/06 02:07:09;;;;;;;13.27;8.38;;;9.10;99.90;;;;;;5118291;28;20207;-91
2023/04/06 02:09:36;;;;;;;18.05;9.68;;;9.10;99.90;;;;;;5119004;28;20027;-91
2023/04/06 02:12:01;;;;;;;16.80;8.40;;;9.10;99.90;;;;;;5119565;28;20045;-91
2023/04/06 02:14:27;;;;;;;10.38;7.00;;;9.10;99.90;;;;;;5118804;28;20023;-90
2023/04/06 02:16:53;;;;;;;7.07;5.10;;;9.20;99.90;;;;;;5118453;28;20016;-90
2023/04/06 02:19:18;;;;;;;7.70;4.75;;;9.10;99.90;;;;;;5114654;28;20024;-90
2023/04/06 02:21:44;;;;;;;13.32;8.20;;;9.10;99.90;;;;;;5113515;28;20024;-91
2023/04/06 02:24:10;;;;;;;11.88;7.78;;;9.10;99.90;;;;;;5112868;28;20065;-91
2023/04/06 02:26:35;;;;;;;13.32;8.48;;;9.10;99.90;;;;;;5113054;28;20112;-92
2023/04/06 02:29:02;;;;;;;13.32;8.68;;;9.20;99.90;;;;;;5112895;28;20149;-90
2023/04/06 02:31:27;;;;;;;15.25;8.95;;;9.20;99.90;;;;;;5112783;28;20046;-91
2023/04/06 02:33:53;;;;;;;14.60;9.68;;;9.20;99.90;;;;;;5113327;28;20019;-91
2023/04/06 02:36:19;;;;;;;14.85;8.32;;;9.20;99.90;;;;;;5112633;28;20519;-90
2023/04/06 02:38:45;;;;;;;8.32;5.35;;;9.20;99.90;;;;;;5112669;28;20016;-91
2023/04/06 02:41:10;;;;;;;14.55;8.98;;;9.20;99.90;;;;;;5113818;28;20028;-90
2023/04/06 02:43:36;;;;;;;16.60;8.80;;;9.20;99.90;;;;;;5112654;28;20020;-90
2023/04/06 02:46:02;;;;;;;17.05;10.10;;;9.20;99.90;;;;;;5113085;28;20031;-90
2023/04/06 02:48:27;;;;;;;19.45;10.43;;;9.20;99.90;;;;;;5112784;28;20032;-89
2023/04/06 02:50:53;;;;;;;19.23;10.85;;;9.20;99.90;;;;;;5112394;28;20032;-90
2023/04/06 02:53:19;;;;;;;19.27;10.30;;;9.20;99.90;;;;;;5113071;28;20016;-90
2023/04/06 02:55:44;;;;;;;21.33;11.55;;;9.20;99.90;;;;;;5113512;28;20027;-90
2023/04/06 02:58:10;;;;;;;20.30;11.05;;;9.20;99.90;;;;;;5112696;28;20016;-90
2023/04/06 03:00:36;;;;;;;21.05;11.73;;;9.10;99.90;;;;;;5113006;28;20107;-90
2023/04/06 03:03:02;;;;;;;17.98;10.52;;;9.10;99.90;;;;;;5114288;28;20020;-91
2023/04/06 03:05:27;;;;;;;21.55;10.75;;;9.10;99.90;;;;;;5112658;28;20058;-91
2023/04/06 03:07:53;;;;;;;17.58;9.98;;;9.10;99.90;;;;;;5114352;28;20488;-91
2023/04/06 03:10:19;;;;;;;16.80;9.23;;;9.10;99.90;;;;;;5116450;28;20076;-91
2023/04/06 03:12:44;;;;;;;18.98;10.68;;;9.10;99.90;;;;;;5116415;28;20119;-91
2023/04/06 03:15:11;;;;;;;17.25;9.00;;;9.10;99.90;;;;;;5116188;28;20062;-90
2023/04/06 03:17:36;;;;;;;18.13;10.05;;;9.10;99.90;;;;;;5116131;28;20020;-90
2023/04/06 03:20:03;;;;;;;15.25;8.32;;;9.10;99.90;;;;;;5116168;28;20024;-91
2023/04/06 03:22:29;;;;;;;15.57;8.50;;;9.10;99.90;;;;;;5119216;28;20046;-90
2023/04/06 03:24:54;;;;;;;19.27;10.20;;;9.10;99.90;;;;;;5117209;28;20047;-90
2023/04/06 03:27:20;;;;;;;17.92;8.93;;;9.10;99.90;;;;;;5116208;28;20016;-90
2023/04/06 03:29:46;;;;;;;22.63;11.48;;;9.10;99.90;;;;;;5116814;28;20377;-90
2023/04/06 03:32:11;;;;;;;21.40;10.98;;;9.10;99.90;;;;;;5116752;28;20031;-90
2023/04/06 03:34:39;;;;;;;20.50;10.95;;;9.10;99.90;;;;;;5116111;28;20023;-91
2023/04/06 03:37:05;;;;;;;17.10;8.93;;;9.10;99.90;;;;;;5116296;28;20031;-90
2023/04/06 03:39:30;;;;;;;21.25;10.25;;;9.10;99.90;;;;;;5116042;28;20032;-91
2023/04/06 03:41:56;;;;;;;18.35;9.38;;;9.10;99.90;;;;;;5116135;28;20114;-90
2023/04/06 03:44:22;;;;;;;15.10;8.52;;;9.20;99.90;;;;;;5117727;28;20023;-90
2023/04/06 03:46:47;;;;;;;13.82;7.43;;;9.20;99.90;;;;;;5117945;28;20489;-91
2023/04/06 03:49:13;;;;;;;10.88;5.97;;;9.20;99.90;;;;;;5115948;28;20062;-91
2023/04/06 03:51:38;;;;;;;10.90;6.15;;;9.20;99.90;;;;;;5115798;28;20055;-91
2023/04/06 03:54:04;;;;;;;10.95;6.03;;;9.20;99.90;;;;;;5115732;28;20424;-91
2023/04/06 03:56:30;;;;;;;10.43;5.80;;;9.30;99.90;;;;;;5115382;28;20027;-91
2023/04/06 03:58:56;;;;;;;9.13;5.65;;;9.30;99.90;;;;;;5115647;28;20397;-90
2023/04/06 04:01:21;;;;;;;13.90;6.63;;;9.30;99.90;;;;;;5115626;28;20062;-91
2023/04/06 04:03:47;;;;;;;12.18;6.15;;;9.30;99.90;;;;;;5115010;28;20063;-90
2023/04/06 04:06:13;;;;;;;10.32;6.32;;;9.30;99.90;;;;;;5115327;28;20044;-88
2023/04/06 04:08:38;;;;;;;6.18;4.07;;;9.20;99.90;;;;;;5115498;28;20019;-90
2023/04/06 04:11:04;;;;;;;7.93;4.75;;;9.30;99.90;;;;;;5116176;28;20035;-91
2023/04/06 04:13:30;;;;;;;4.97;4.00;;;9.20;99.90;;;;;;5116199;28;20115;-91
2023/04/06 04:15:56;;;;;;;5.85;3.92;;;9.30;99.90;;;;;;5115229;28;20105;-91
2023/04/06 04:18:21;;;;;;;9.05;5.13;;;9.20;99.90;;;;;;5114992;28;20034;-91
2023/04/06 04:20:47;;;;;;;10.80;5.28;;;9.20;99.90;;;;;;5115138;28;20047;-91
2023/04/06 04:23:13;;;;;;;10.52;6.45;;;9.30;99.90;;;;;;5115086;28;20027;-90
2023/04/06 04:25:38;;;;;;;13.48;7.40;;;9.30;99.90;;;;;;5115027;28;20058;-90
2023/04/06 04:28:04;;;;;;;19.90;8.02;;;9.30;99.90;;;;;;5115078;28;20050;-91
2023/04/06 04:30:30;;;;;;;14.65;8.38;;;9.30;99.90;;;;;;5114976;28;20074;-90
2023/04/06 04:32:55;;;;;;;16.42;8.68;;;9.30;99.90;;;;;;5114553;28;20366;-91
2023/04/06 04:35:21;;;;;;;13.60;7.75;;;9.20;99.90;;;;;;5115694;28;20028;-90
2023/04/06 04:37:47;;;;;;;16.83;8.60;;;9.30;99.90;;;;;;5114399;28;20473;-90
2023/04/06 04:40:12;;;;;;;18.23;8.60;;;9.30;99.90;;;;;;5114330;28;20477;-90
2023/04/06 04:42:39;;;;;;;16.60;8.50;;;9.30;99.90;;;;;;5115425;28;20051;-90
2023/04/06 04:45:05;;;;;;;16.20;8.18;;;9.30;99.90;;;;;;5114234;28;20122;-91
2023/04/06 04:47:30;;;;;;;12.30;7.57;;;9.40;99.90;;;;;;5114286;28;20054;-90
2023/04/06 04:49:56;;;;;;;14.73;7.13;;;9.40;99.90;;;;;;5114389;28;20028;-90
2023/04/06 04:52:22;;;;;;;16.42;8.35;;;9.40;99.90;;;;;;5114087;28;20496;-90
2023/04/06 04:54:47;;;;;;;16.00;8.30;;;9.40;99.90;;;;;;5120505;28;20115;-90
2023/04/06 04:57:13;;;;;;;15.43;7.68;;;9.40;99.90;;;;;;5115282;28;20027;-88
2023/04/06 04:59:39;;;;;;;13.55;8.43;;;9.40;99.90;;;;;;5114196;28;20519;-89
2023/04/06 05:02:04;;;;;;;17.08;8.93;;;9.30;99.90;;;;;;5114009;28;20514;-88
2023/04/06 05:04:30;;;;;;;17.98;9.77;;;9.30;99.90;;;;;;5114515;28;20071;-90
2023/04/06 05:07:06;;;;;;;19.45;10.18;;;9.30;99.90;;;;;;5114750;28;20024;-89
2023/04/06 05:09:32;;;;;;;20.15;10.27;;;9.30;99.90;;;;;;5114474;28;20122;-89
2023/04/06 05:11:59;;;;;;;21.88;9.98;;;9.30;99.90;;;;;;5114710;28;20074;-89
2023/04/06 05:14:25;;;;;;;26.83;11.65;;;9.30;99.90;;;;;;5118823;28;20076;-89
2023/04/06 05:16:51;;;;;;;24.83;10.23;;;9.30;99.90;;;;;;5116758;28;20034;-90
2023/04/06 05:19:16;;;;;;;19.92;9.90;;;9.30;99.90;;;;;;5115731;28;20094;-89
2023/04/06 05:21:42;;;;;;;23.55;10.60;;;9.30;99.90;;;;;;5113683;28;20034;-89
2023/04/06 05:24:08;;;;;;;19.33;10.75;;;9.30;99.90;;;;;;5113809;28;20062;-89
2023/04/06 05:26:35;;;;;;;19.73;10.32;;;9.30;99.90;;;;;;5113743;28;20026;-90
2023/04/06 05:29:01;;;;;;;17.70;9.40;;;9.30;99.90;;;;;;5113927;28;20111;-89
2023/04/06 05:31:26;;;;;;;16.77;9.05;;;9.30;99.90;;;;;;5119958;28;20040;-89
2023/04/06 05:33:52;;;;;;;14.02;8.52;;;9.30;99.90;;;;;;5114416;28;20476;-89
2023/04/06 05:36:21;;;;;;;16.30;9.05;;;9.30;99.90;;;;;;5113962;28;20110;-90
2023/04/06 05:38:46;;;;;;;17.63;9.57;;;9.30;99.90;;;;;;5113441;28;20035;-88
2023/04/06 05:41:12;;;;;;;16.92;8.55;;;9.30;99.90;;;;;;5113251;28;20024;-89
2023/04/06 05:43:38;;;;;;;18.92;9.80;;;9.30;99.90;;;;;;5113065;28;20103;-89
2023/04/06 05:46:04;;;;;;;11.60;6.82;;;9.30;99.90;;;;;;5113435;28;20503;-90
2023/04/06 05:48:29;;;;;;;12.23;6.05;;;9.30;99.90;;;;;;5114532;28;20047;-89
2023/04/06 05:50:55;;;;;;;13.05;4.32;;;9.30;99.90;;;;;;5115305;28;20484;-88
2023/04/06 05:53:21;;;;;;;7.45;3.97;;;9.30;99.90;;;;;;5113946;28;20020;-89
2023/04/06 05:55:47;;;;;;;4.47;3.20;;;9.30;99.90;;;;;;5113781;28;20034;-90
2023/04/06 05:58:13;;;;;;;4.82;2.88;;;9.30;99.90;;;;;;5113900;28;20019;-90
2023/04/06 06:00:38;;;;;;;7.45;3.88;;;9.30;99.90;;;;;;5114542;28;20127;-90
2023/04/06 06:03:05;;;;;;;6.00;2.42;;;9.30;99.90;;;;;;5114655;28;20468;-90
2023/04/06 06:05:31;;;;;;;3.35;2.70;;;9.30;99.90;;;;;;5116233;28;20050;-91
2023/04/06 06:07:57;;;;;;;8.10;3.75;;;9.30;99.90;;;;;;5113212;28;20023;-90
2023/04/06 06:10:22;;;;;;;6.47;3.28;;;9.30;99.90;;;;;;5113343;28;20028;-90
2023/04/06 06:12:48;;;;;;;5.65;3.03;;;9.30;99.90;;;;;;5113095;28;20070;-90
2023/04/06 06:15:14;;;;;;;4.43;3.47;;;9.30;99.90;;;;;;5114046;28;20024;-90
2023/04/06 06:17:40;;;;;;;7.13;3.50;;;9.30;99.90;;;;;;5120446;28;20024;-89
2023/04/06 06:20:07;;;;;;;10.30;4.13;;;9.30;99.90;;;;;;5123041;28;20050;-89
2023/04/06 06:22:33;;;;;;;10.38;5.75;;;9.30;99.90;;;;;;5123712;28;20031;-89
2023/04/06 06:24:58;;;;;;;11.57;4.70;;;9.30;99.90;;;;;;5121097;28;20035;-89
2023/04/06 06:27:24;;;;;;;10.88;5.07;;;9.40;99.90;;;;;;5119899;28;20024;-90
2023/04/06 06:29:51;;;;;;;9.45;5.07;;;9.30;99.90;;;;;;5117727;28;20024;-89
2023/04/06 06:32:17;;;;;;;10.52;5.97;;;9.40;99.90;;;;;;5112392;28;20027;-89
2023/04/06 06:34:43;;;;;;;15.82;6.35;;;9.40;99.90;;;;;;5112572;28;20532;-90
2023/04/06 06:37:09;;;;;;;11.73;6.43;;;9.40;99.90;;;;;;5112931;28;20044;-90
2023/04/06 06:39:34;;;;;;;12.48;6.50;;;9.40;99.90;;;;;;5115302;28;20073;-91
2023/04/06 06:42:01;;;;;;;12.90;6.07;;;9.40;99.90;;;;;;5114816;28;20023;-91
2023/04/06 06:44:27;;;;;;;12.77;5.40;;;9.40;99.90;;;;;;5117241;28;20035;-90
2023/04/06 06:46:53;;;;;;;11.48;5.90;;;9.40;99.90;;;;;;5117000;28;20027;-91
2023/04/06 06:49:19;;;;;;;8.70;5.20;;;9.40;99.90;;;;;;5116947;28;20016;-91
2023/04/06 06:51:46;;;;;;;10.65;5.10;;;9.50;99.90;;;;;;5116656;28;20038;-91
2023/04/06 06:54:12;;;;;;;11.05;5.53;;;9.50;99.90;;;;;;5116075;28;20020;-91
2023/04/06 06:56:39;;;;;;;9.52;5.15;;;9.50;99.90;;;;;;5116662;28;20034;-91
2023/04/06 06:59:05;;;;;;;10.52;5.50;;;9.40;99.90;;;;;;5115308;28;20106;-91
2023/04/06 07:01:36;;;;;;;7.35;3.70;;;9.50;99.90;;;;;;5113379;28;20024;-91
2023/04/06 07:04:02;;;;;;;6.30;2.92;;;9.40;99.90;;;;;;5116615;28;20051;-91
2023/04/06 07:06:28;;;;;;;5.47;3.33;;;9.40;99.90;;;;;;5116434;28;20035;-91
2023/04/06 07:08:53;;;;;;;8.13;3.53;;;9.40;99.90;;;;;;5116508;28;20019;-91
2023/04/06 07:11:19;;;;;;;5.72;3.22;;;9.30;99.90;;;;;;5115995;28;20057;-91
2023/04/06 07:13:44;;;;;;;7.68;3.88;;;9.40;99.90;;;;;;5116374;28;20416;-89
2023/04/06 07:16:10;;;;;;;8.27;4.47;;;9.30;99.90;;;;;;5116499;28;20100;-90
2023/04/06 07:18:36;;;;;;;9.05;4.68;;;9.40;99.90;;;;;;5118395;28;20047;-89
2023/04/06 07:21:01;;;;;;;7.57;4.10;;;9.30;99.90;;;;;;5119255;28;20032;-90
2023/04/06 07:23:27;;;;;;;8.77;4.60;;;9.30;99.90;;;;;;5115571;28;20023;-90
2023/04/06 07:25:54;;;;;;;12.00;3.85;;;9.30;99.90;;;;;;5115151;28;20035;-89
2023/04/06 07:28:20;;;;;;;6.57;3.15;;;9.20;99.90;;;;;;5113789;28;20377;-91
2023/04/06 07:30:45;;;;;;;8.00;2.60;;;9.20;99.90;;;;;;5115412;28;20023;-90
2023/04/06 07:33:11;;;;;;;9.88;2.63;;;9.20;99.90;;;;;;5114020;28;20096;-91
2023/04/06 07:35:37;;;;;;;5.75;2.20;;;9.10;99.90;;;;;;5114414;28;20019;-91
2023/04/06 07:38:03;;;;;;;8.27;2.45;;;9.10;99.90;;;;;;5116015;28;20468;-91
2023/04/06 07:40:31;;;;;;;8.23;2.00;;;9.00;99.90;;;;;;5117563;28;20028;-91
2023/04/06 07:42:57;;;;;;;4.07;1.73;;;9.00;99.90;;;;;;5116187;28;20465;-91
2023/04/06 07:45:23;;;;;;;13.30;2.00;;;9.00;99.90;;;;;;5111981;28;20119;-92
2023/04/06 07:47:49;;;;;;;8.02;1.70;;;9.00;99.90;;;;;;5114557;28;20038;-92
2023/04/06 07:50:15;;;;;;;6.88;2.45;;;9.00;99.90;;;;;;5117246;28;20028;-93
2023/04/06 07:52:41;;;;;;;4.38;1.52;;;9.00;99.90;;;;;;5114324;28;20023;-92
2023/04/06 07:55:07;;;;;;;10.40;1.77;;;9.00;99.90;;;;;;5119329;28;20042;-92
2023/04/06 07:57:33;;;;;;;4.15;1.90;;;9.10;99.90;;;;;;5114502;28;20015;-92
2023/04/06 07:59:58;;;;;;;8.07;2.97;;;9.10;99.90;;;;;;5119750;28;20028;-92
2023/04/06 08:02:24;;;;;;;5.40;1.63;;;9.10;99.90;;;;;;5115613;28;20019;-92
2023/04/06 08:04:50;;;;;;;6.20;1.65;;;9.20;99.90;;;;;;5117033;28;20052;-91
2023/04/06 08:07:15;;;;;;;8.10;1.40;;;9.20;99.90;;;;;;5121288;28;20080;-92
2023/04/06 08:09:41;;;;;;;9.57;1.80;;;9.30;99.90;;;;;;5115405;28;20381;-92
2023/04/06 08:12:07;;;;;;;7.25;1.75;;;9.30;99.90;;;;;;5114561;28;20503;-90
2023/04/06 08:14:32;;;;;;;6.95;1.92;;;9.30;99.90;;;;;;5114085;28;20047;-93
2023/04/06 08:16:58;;;;;;;10.60;2.00;;;9.40;99.90;;;;;;5114052;28;20031;-91
2023/04/06 08:19:23;;;;;;;5.97;1.92;;;9.40;99.90;;;;;;5113769;28;20073;-93
2023/04/06 08:21:49;;;;;;;4.85;2.63;;;9.40;99.90;;;;;;5113803;28;20068;-92
2023/04/06 08:24:15;;;;;;;9.68;2.15;;;9.40;99.90;;;;;;5114031;28;20032;-91
2023/04/06 08:26:40;;;;;;;10.85;2.67;;;9.40;99.90;;;;;;5114762;28;20092;-92
2023/04/06 08:29:09;;;;;;;9.73;1.90;;;9.40;99.90;;;;;;5115235;28;20120;-92
2023/04/06 08:31:35;;;;;;;6.07;2.03;;;9.40;99.90;;;;;;5115877;28;20102;-91
2023/04/06 08:34:05;;;;;;;12.25;2.13;;;9.40;99.90;;;;;;5111973;28;20224;-92
2023/04/06 08:36:31;;;;;;;5.60;1.70;;;9.40;99.90;;;;;;5114249;28;20027;-91
2023/04/06 08:38:57;;;;;;;7.57;1.67;;;9.40;99.90;;;;;;5114521;28;20023;-93
2023/04/06 08:41:23;;;;;;;10.55;1.90;;;9.50;99.90;;;;;;5115220;28;20069;-92
2023/04/06 08:43:53;;;;;;;12.82;2.05;;;9.50;99.90;;;;;;5113530;28;20024;-90
2023/04/06 08:46:18;;;;;;;8.85;1.70;;;9.60;99.90;;;;;;5113891;28;20500;-90
2023/04/06 08:48:48;;;;;;;15.20;1.85;;;9.60;99.90;;;;;;5113710;28;20024;-91
2023/04/06 08:51:14;;;;;;;13.77;2.25;;;9.70;99.90;;;;;;5112502;28;20023;-92
2023/04/06 08:53:41;;;;;;;11.68;1.80;;;9.70;99.90;;;;;;5112447;28;20027;-89
2023/04/06 08:56:09;;;;;;;14.02;1.98;;;9.80;99.90;;;;;;5113058;28;20020;-93
2023/04/06 08:58:40;;;;;;;7.15;1.00;;;9.80;99.90;;;;;;5112857;28;20508;-91
2023/04/06 09:01:13;;;;;;;8.18;1.30;;;9.90;99.90;;;;;;5112816;28;20039;-90
2023/04/06 09:03:40;;;;;;;10.38;1.70;;;9.90;99.90;;;;;;5127696;27;20074;-91
2023/04/06 09:06:07;;;;;;;10.80;1.77;;;9.90;99.90;;;;;;5113710;28;20027;-92
2023/04/06 09:08:34;;;;;;;14.82;2.42;;;9.90;99.90;;;;;;5112350;28;20027;-91
2023/04/06 09:11:04;;;;;;;9.20;2.05;;;9.90;99.90;;;;;;5111545;28;20027;-91
2023/04/06 09:13:30;;;;;;;11.40;2.28;;;9.90;99.90;;;;;;5113641;28;20019;-93
2023/04/06 09:16:08;;;;;;;15.18;1.67;;;9.90;99.90;;;;;;5113746;28;20024;-93
2023/04/06 09:18:34;;;;;;;9.90;2.30;;;10.00;99.90;;;;;;5114322;28;20031;-92
2023/04/06 09:21:05;;;;;;;8.18;1.60;;;10.10;99.90;;;;;;5114086;28;20392;-92
2023/04/06 09:23:31;;;;;;;10.68;2.40;;;10.20;99.90;;;;;;5115987;28;20116;-91
2023/04/06 09:26:11;;;;;;;9.32;1.70;;;10.20;99.90;;;;;;5109212;28;20572;-92
2023/04/06 09:28:51;;;;;;;9.15;1.70;;;10.20;99.90;;;;;;5112904;28;20023;-92
2023/04/06 09:31:27;;;;;;;8.25;1.60;;;10.40;99.90;;;;;;5130055;27;20027;-92
2023/04/06 09:33:54;;;;;;;6.78;1.35;;;10.60;99.90;;;;;;5122427;28;20039;-92
2023/04/06 09:36:29;;;;;;;9.48;1.33;;;10.80;99.90;;;;;;5127270;28;20028;-91
2023/04/06 09:39:00;;;;;;;8.05;1.98;;;11.00;99.90;;;;;;5118735;28;20031;-92
2023/04/06 09:41:30;;;;;;;17.40;1.80;;;11.20;99.90;;;;;;5114345;28;20473;-91
2023/04/06 09:44:04;;;;;;;6.32;1.83;;;11.30;99.90;;;;;;5116635;28;20426;-91
2023/04/06 09:46:33;;;;;;;10.27;2.75;;;11.40;99.90;;;;;;5114978;28;20024;-90
2023/04/06 09:49:03;;;;;;;11.15;1.80;;;11.50;99.90;;;;;;5112780;28;20476;-89
2023/04/06 09:51:39;;;;;;;9.95;1.92;;;11.60;99.90;;;;;;5113998;28;20041;-90
2023/04/06 09:54:06;;;;;;;15.25;1.70;;;11.80;99.90;;;;;;5113778;28;20541;-89
2023/04/06 09:56:41;;;;;;;21.55;2.10;;;11.90;99.90;;;;;;5113962;28;20062;-91
2023/04/06 09:59:12;;;;;;;16.73;2.65;;;12.00;99.90;;;;;;5113087;28;20030;-89
2023/04/06 10:01:40;;;;;;;9.50;1.42;;;12.00;99.90;;;;;;5112300;28;20023;-90
2023/04/06 10:04:21;;;;;;;8.80;1.40;;;12.00;99.90;;;;;;5115539;28;20059;-90
2023/04/06 10:06:52;;;;;;;13.77;1.83;;;12.00;99.90;;;;;;5127229;27;20085;-90
2023/04/06 10:09:22;;;;;;;18.48;2.55;;;12.10;99.90;;;;;;5115368;28;20461;-91
2023/04/06 10:11:50;;;;;;;10.07;1.80;;;12.20;99.90;;;;;;5115035;28;20179;-91
2023/04/06 10:14:16;;;;;;;14.27;2.90;;;12.20;99.90;;;;;;5113193;28;20032;-91
2023/04/06 10:16:42;;;;;;;8.90;2.15;;;12.20;99.90;;;;;;5111767;28;20072;-91
2023/04/06 10:19:16;;;;;;;11.27;2.03;;;12.10;99.90;;;;;;5111466;28;20028;-90
2023/04/06 10:21:46;;;;;;;4.78;1.65;;;12.20;99.90;;;;;;5126449;28;20106;-91
2023/04/06 10:24:13;;;;;;;17.65;2.53;;;12.30;99.90;;;;;;5115044;28;20023;-93
2023/04/06 10:26:39;;;;;;;11.50;1.58;;;12.30;99.90;;;;;;5117612;28;20118;-90
2023/04/06 10:29:06;;;;;;;6.25;1.33;;;12.40;99.90;;;;;;5120015;28;20291;-93
2023/04/06 10:31:32;;;;;;;8.00;1.20;;;12.60;99.90;;;;;;5119599;28;20035;-91
2023/04/06 10:34:02;;;;;;;14.32;2.65;;;12.80;99.90;;;;;;5116098;28;20031;-91
2023/04/06 10:36:33;;;;;;;13.95;1.75;;;12.90;99.90;;;;;;5118082;28;20528;-92
2023/04/06 10:39:02;;;;;;;4.97;1.10;;;12.80;99.70;;;;;;5116669;28;20032;-91
2023/04/06 10:41:35;;;;;;;11.80;1.63;;;12.80;99.20;;;;;;5115981;28;20015;-91
2023/04/06 10:44:02;;;;;;;10.65;1.60;;;12.90;99.20;;;;;;5116076;28;20123;-91
2023/04/06 10:46:30;;;;;;;4.95;1.10;;;13.10;98.80;;;;;;5115893;28;20036;-91
2023/04/06 10:48:56;;;;;;;10.57;2.28;;;13.30;98.30;;;;;;5113462;28;20024;-91
2023/04/06 10:51:29;;;;;;;11.00;1.30;;;13.40;96.90;;;;;;5114326;28;20042;-92
2023/04/06 10:53:56;;;;;;;8.07;1.30;;;13.40;95.40;;;;;;5114344;28;20020;-92
2023/04/06 10:56:25;;;;;;;9.90;1.20;;;13.50;95.20;;;;;;5113836;28;20024;-92
2023/04/06 10:58:58;;;;;;;9.82;1.63;;;13.70;95.20;;;;;;5113770;28;20357;-91
2023/04/06 11:01:27;;;;;;;8.93;1.23;;;13.80;95.10;;;;;;5114068;28;20024;-91
2023/04/06 11:03:59;;;;;;;9.05;1.58;;;13.70;94.40;;;;;;5112539;28;20044;-91
2023/04/06 11:06:28;;;;;;;9.75;2.03;;;13.40;93.60;;;;;;5113067;28;20032;-92
2023/04/06 11:08:55;;;;;;;12.13;1.33;;;13.40;93.80;;;;;;5112880;28;20030;-91
2023/04/06 11:11:23;;;;;;;8.18;2.15;;;13.30;93.50;;;;;;5112912;28;20031;-91
2023/04/06 11:13:52;;;;;;;14.48;2.08;;;13.20;93.50;;;;;;5113022;28;20023;-91
2023/04/06 11:16:29;;;;;;;8.90;1.55;;;13.10;93.40;;;;;;5115554;28;20530;-92
2023/04/06 11:18:57;;;;;;;13.45;1.70;;;13.00;93.10;;;;;;5113191;28;20496;-92
2023/04/06 11:21:39;;;;;;;9.52;1.95;;;13.10;93.40;;;;;;5113863;28;20031;-93
2023/04/06 11:24:14;;;;;;;6.20;1.13;;;13.50;93.80;;;;;;5112625;28;20020;-90
2023/04/06 11:26:52;;;;;;;9.38;2.38;;;14.00;92.90;;;;;;5113085;28;20044;-92
2023/04/06 11:29:26;;;;;;;10.57;1.33;;;14.30;92.10;;;;;;5119778;28;20509;-91
2023/04/06 11:31:59;;;;;;;7.90;1.50;;;14.60;91.00;;;;;;5129060;27;20020;-91
2023/04/06 11:34:27;;;;;;;6.97;1.08;;;14.80;90.20;;;;;;5119147;28;20028;-92
2023/04/06 11:36:58;;;;;;;6.90;1.10;;;14.70;88.50;;;;;;5119842;28;20023;-92
2023/04/06 11:39:25;;;;;;;;;;;14.50;86.60;;;;;;5127409;28;20034;-92
2023/04/06 11:41:52;;;;;;;3.55;0.95;;;14.30;87.00;;;;;;5136613;28;19896;-90
2023/04/06 11:44:36;;;;;;;12.00;1.67;;;14.30;87.70;;;;;;5118693;28;20034;-92
2023/04/06 11:47:03;;;;;;;9.93;1.60;;;14.30;87.80;;;;;;5116161;28;20038;-92
2023/04/06 11:49:29;;;;;;;7.57;1.30;;;14.40;88.40;;;;;;5116887;28;20027;-90
2023/04/06 11:51:55;;;;;;;10.00;1.58;;;14.60;87.70;;;;;;5119650;28;20027;-93
2023/04/06 11:54:38;;;;;;;7.40;1.20;;;14.70;85.40;;;;;;5114860;28;20020;-91
2023/04/06 11:57:04;;;;;;;9.88;1.25;;;14.70;85.60;;;;;;5115883;28;20042;-93
2023/04/06 11:59:34;;;;;;;7.95;2.15;;;14.70;85.80;;;;;;5114890;27;20038;-90
2023/04/06 12:02:01;;;;;;;9.77;1.25;;;14.90;86.80;;;;;;5094792;28;20024;-91
2023/04/06 12:04:26;;;;;;;6.80;1.45;;;15.20;87.00;;;;;;5095884;28;20071;-92
2023/04/06 12:06:52;;;;;;;6.53;1.40;;;15.40;86.30;;;;;;5111369;28;20119;-92
2023/04/06 12:09:18;;;;;;;12.65;2.22;;;15.60;85.20;;;;;;5115810;28;20024;-92
2023/04/06 12:12:01;;;;;;;10.90;1.98;;;15.80;84.80;;;;;;5117774;28;20023;-92
2023/04/06 12:14:36;;;;;;;5.40;1.20;;;16.00;83.60;;;;;;5117273;28;20020;-91
2023/04/06 12:17:02;;;;;;;6.32;1.15;;;16.00;82.60;;;;;;5109797;28;20087;-91
2023/04/06 12:19:28;;;;;;;6.72;1.38;;;15.80;82.00;;;;;;5116112;28;20496;-92
2023/04/06 12:21:54;;;;;;;10.52;1.75;;;15.80;82.60;;;;;;5115784;28;20401;-92
2023/04/06 12:24:20;;;;;;;7.68;1.98;;;15.80;81.80;;;;;;5117071;28;20014;-91
2023/04/06 12:26:46;;;;;;;3.63;1.27;;;15.70;81.50;;;;;;5116072;28;20031;-92
2023/04/06 12:29:14;;;;;;;5.45;1.17;;;15.60;82.20;;;;;;5120644;28;20027;-91
2023/04/06 12:31:44;;;;;;;8.73;1.38;;;15.50;82.20;;;;;;5121130;28;20031;-89
2023/04/06 12:34:10;;;;;;;7.20;1.45;;;15.30;81.80;;;;;;5116409;28;20020;-91
2023/04/06 12:36:37;;;;;;;7.93;1.30;;;15.20;81.70;;;;;;5114380;28;20032;-91
2023/04/06 12:39:05;;;;;;;9.65;1.60;;;15.30;82.50;;;;;;5115210;28;20024;-91
2023/04/06 12:41:31;;;;;;;5.28;1.13;;;15.50;82.20;;;;;;5117409;28;20056;-89
2023/04/06 12:43:59;;;;;;;6.78;1.02;;;15.50;81.70;;;;;;5115429;28;20023;-90
2023/04/06 12:46:30;;;;;;;6.13;1.17;;;15.40;81.70;;;;;;5115730;28;20427;-92